Time;durP1;ratioP1;P1;durP2;ratioP2;P2;SDS_P1;SDS_P2;PMS_P1;PMS_P2;Temp;Humidity;BMP_temperature;BMP_pressure;BME280_temperature;BME280_humidity;BME280_pressure;Samples;Min_cycle;Max_cycle;Signal;HPM_P1;HPM_P2
2024/02/12 00:05:28;;;;;;;161.50;151.60;;;7.60;99.90;;;;;;12530789;28;20045;-37
2024/02/12 00:11:30;;;;;;;166.73;156.70;;;7.60;99.90;;;;;;12532250;28;20057;-35
2024/02/12 00:17:34;;;;;;;159.90;150.18;;;7.60;99.90;;;;;;12532175;28;20142;-36
2024/02/12 00:23:37;;;;;;;162.32;152.13;;;7.50;99.90;;;;;;12528326;28;20056;-36
2024/02/12 00:29:39;;;;;;;160.90;150.80;;;7.60;99.90;;;;;;12540649;28;20061;-36
2024/02/12 00:35:41;;;;;;;154.38;145.25;;;7.50;99.90;;;;;;12538626;28;20071;-36
2024/02/12 00:41:53;;;;;;;161.35;151.70;;;7.50;99.90;;;;;;12543105;28;20424;-36
2024/02/12 00:47:55;;;;;;;159.50;149.82;;;7.40;99.90;;;;;;12534429;28;20065;-36
2024/02/12 00:53:58;;;;;;;157.80;148.05;;;7.50;99.90;;;;;;12538071;28;20057;-36
2024/02/12 01:00:11;;;;;;;161.70;151.73;;;7.40;99.90;;;;;;12544088;28;20075;-36
2024/02/12 01:06:12;;;;;;;166.23;155.70;;;7.40;99.90;;;;;;12535263;28;20052;-36
2024/02/12 01:12:14;;;;;;;170.63;159.95;;;7.40;99.90;;;;;;12543641;28;20424;-36
2024/02/12 01:18:17;;;;;;;170.93;160.30;;;7.40;99.90;;;;;;12530387;28;20057;-36
2024/02/12 01:24:19;;;;;;;164.85;154.52;;;7.40;99.90;;;;;;12519503;28;20524;-35
2024/02/12 01:30:22;;;;;;;163.40;153.18;;;7.30;99.90;;;;;;12525217;28;20113;-36
2024/02/12 01:36:25;;;;;;;163.10;153.02;;;7.30;99.90;;;;;;12524519;28;20064;-36
2024/02/12 01:42:27;;;;;;;165.52;155.00;;;7.30;99.90;;;;;;12521760;28;20056;-36
2024/02/12 01:48:30;;;;;;;171.20;160.40;;;7.30;99.90;;;;;;12525049;28;20083;-36
2024/02/12 01:54:34;;;;;;;165.17;154.87;;;7.30;99.90;;;;;;12522360;28;20045;-36
2024/02/12 02:00:37;;;;;;;170.83;160.13;;;7.30;99.90;;;;;;12522969;28;20061;-36
2024/02/12 02:06:39;;;;;;;166.20;155.95;;;7.30;99.90;;;;;;12515255;28;20060;-35
2024/02/12 02:12:46;;;;;;;170.48;160.02;;;7.30;99.90;;;;;;12525249;28;20060;-35
2024/02/12 02:18:50;;;;;;;173.80;162.77;;;7.30;99.90;;;;;;12525015;28;20113;-36
2024/02/12 02:24:53;;;;;;;181.25;170.07;;;7.20;99.90;;;;;;12531203;28;20053;-36
2024/02/12 02:30:55;;;;;;;169.38;159.07;;;7.10;99.90;;;;;;12534963;28;20057;-36
2024/02/12 02:36:57;;;;;;;168.68;157.98;;;7.10;99.90;;;;;;12544525;28;20059;-36
2024/02/12 02:43:00;;;;;;;168.85;158.35;;;7.10;99.90;;;;;;12550169;28;20057;-35
2024/02/12 02:49:03;;;;;;;172.03;161.27;;;7.10;99.90;;;;;;12537423;28;20068;-36
2024/02/12 02:55:07;;;;;;;167.95;157.40;;;7.10;99.90;;;;;;12529775;28;20053;-36
2024/02/12 03:01:10;;;;;;;170.52;159.48;;;7.10;99.90;;;;;;12547963;28;20092;-36
2024/02/12 03:07:12;;;;;;;171.13;160.57;;;7.10;99.90;;;;;;12529876;28;20048;-36
2024/02/12 03:13:15;;;;;;;187.90;176.50;;;7.20;99.90;;;;;;12539994;28;20064;-35
2024/02/12 03:19:17;;;;;;;185.03;173.67;;;7.20;99.90;;;;;;12555748;28;20080;-36
2024/02/12 03:25:20;;;;;;;187.57;175.77;;;7.20;99.90;;;;;;12510582;28;20057;-36
2024/02/12 03:31:22;;;;;;;190.57;178.60;;;7.20;99.90;;;;;;12524342;28;20551;-35
2024/02/12 03:37:24;;;;;;;184.40;172.88;;;7.10;99.90;;;;;;12519278;28;20060;-35
2024/02/12 03:43:27;;;;;;;184.20;172.15;;;7.10;99.90;;;;;;12526476;28;20463;-35
2024/02/12 04:02:11;;;;;;;183.98;172.35;;;7.00;99.90;;;;;;12521116;28;20048;-36
2024/02/12 04:08:15;;;;;;;184.20;172.25;;;7.00;99.90;;;;;;12519030;28;20151;-35
2024/02/12 04:14:18;;;;;;;202.95;190.27;;;7.00;99.90;;;;;;12526819;28;20096;-36
2024/02/12 04:20:21;;;;;;;216.10;202.27;;;7.10;99.90;;;;;;12525239;28;20068;-36
2024/02/12 04:26:24;;;;;;;213.98;200.35;;;7.20;99.90;;;;;;12533529;28;20260;-36
2024/02/12 04:32:26;;;;;;;211.23;197.55;;;7.20;99.90;;;;;;12539559;28;20516;-36
2024/02/12 04:38:28;;;;;;;205.88;192.57;;;7.30;99.90;;;;;;12550000;28;20194;-36
2024/02/12 04:44:30;;;;;;;200.98;188.27;;;7.30;99.90;;;;;;12527966;28;20136;-36
2024/02/12 04:50:32;;;;;;;199.52;186.63;;;7.20;99.90;;;;;;12536563;28;20060;-36
2024/02/12 04:56:34;;;;;;;196.27;183.27;;;7.00;99.90;;;;;;12542543;28;20057;-36
2024/02/12 05:02:38;;;;;;;198.18;185.30;;;6.80;99.90;;;;;;12535916;28;20489;-35
2024/02/12 05:08:39;;;;;;;206.27;192.63;;;6.80;99.90;;;;;;12545154;28;20608;-36
2024/02/12 05:14:42;;;;;;;204.00;190.30;;;6.80;99.90;;;;;;12533896;28;20069;-36
2024/02/12 05:27:04;;;;;;;191.65;178.75;;;7.00;99.90;;;;;;12518036;28;20057;-36
2024/02/12 05:33:07;;;;;;;184.10;170.98;;;7.10;99.90;;;;;;12520543;28;20401;-35
2024/02/12 05:39:10;;;;;;;180.50;167.82;;;7.00;99.90;;;;;;12522696;28;20383;-36
2024/02/12 05:45:13;;;;;;;173.77;161.50;;;7.10;99.90;;;;;;12505052;28;20065;-36
2024/02/12 05:51:15;;;;;;;167.70;155.65;;;7.10;99.90;;;;;;12516978;28;20048;-36
2024/02/12 05:57:17;;;;;;;163.32;151.75;;;7.20;99.90;;;;;;12522309;28;20069;-36
2024/02/12 06:03:19;;;;;;;149.85;138.82;;;7.10;99.90;;;;;;12527729;28;20105;-36
2024/02/12 06:09:21;;;;;;;153.05;142.02;;;7.10;99.90;;;;;;12529530;28;20088;-36
2024/02/12 06:15:23;;;;;;;146.68;135.82;;;7.10;99.90;;;;;;12531254;28;20060;-36
2024/02/12 06:21:25;;;;;;;150.10;139.35;;;7.10;99.90;;;;;;12534357;28;20733;-36
2024/02/12 06:27:27;;;;;;;149.77;138.55;;;7.20;99.90;;;;;;12542526;28;20045;-35
2024/02/12 06:33:29;;;;;;;143.88;133.20;;;7.10;99.90;;;;;;12545288;28;20091;-35
2024/02/12 06:39:31;;;;;;;149.80;138.55;;;7.10;99.90;;;;;;12540251;28;20062;-36
2024/02/12 06:45:34;;;;;;;151.32;139.93;;;7.10;99.90;;;;;;12539014;28;20052;-36
2024/02/12 06:51:42;;;;;;;162.18;150.18;;;7.10;99.90;;;;;;12528610;28;20420;-37
2024/02/12 06:57:47;;;;;;;156.18;144.93;;;7.10;99.90;;;;;;12540642;28;20045;-35
2024/02/12 07:03:51;;;;;;;152.93;141.52;;;7.10;99.90;;;;;;12535865;28;20049;-36
2024/02/12 07:09:53;;;;;;;160.38;148.68;;;7.10;99.90;;;;;;12531696;28;20143;-36
2024/02/12 07:15:55;;;;;;;159.98;148.00;;;7.00;99.90;;;;;;12541143;28;20053;-36
2024/02/12 07:21:57;;;;;;;155.23;143.52;;;7.10;99.90;;;;;;12524823;28;20064;-35
2024/02/12 07:28:00;;;;;;;159.32;147.15;;;7.20;99.90;;;;;;12530406;28;20052;-35
2024/02/12 07:34:03;;;;;;;158.75;147.02;;;7.20;99.90;;;;;;12528696;28;20057;-36
2024/02/12 07:40:10;;;;;;;162.73;150.57;;;7.20;99.90;;;;;;12533925;28;20045;-36
2024/02/12 07:46:14;;;;;;;168.18;155.75;;;7.20;99.90;;;;;;12516926;28;20140;-36
2024/02/12 07:52:16;;;;;;;164.88;152.52;;;7.20;99.90;;;;;;12519577;28;20526;-34
2024/02/12 07:58:20;;;;;;;164.07;152.25;;;7.20;99.90;;;;;;12524069;28;20049;-35
2024/02/12 08:04:22;;;;;;;172.83;160.47;;;7.20;99.90;;;;;;12523342;28;20053;-36
2024/02/12 08:10:24;;;;;;;162.55;150.52;;;7.20;99.90;;;;;;12527795;28;20065;-36
2024/02/12 08:16:26;;;;;;;168.48;155.98;;;7.30;99.90;;;;;;12528441;28;20044;-35
2024/02/12 08:22:28;;;;;;;163.77;151.88;;;7.40;99.90;;;;;;12534513;28;20049;-36
2024/02/12 08:28:30;;;;;;;158.77;146.75;;;7.50;99.90;;;;;;12532341;28;20049;-35
2024/02/12 08:34:32;;;;;;;161.55;149.80;;;7.70;99.90;;;;;;12534411;28;20056;-35
2024/02/12 08:40:34;;;;;;;190.77;176.88;;;7.80;99.90;;;;;;12548542;28;20079;-36
2024/02/12 08:46:36;;;;;;;179.52;167.27;;;7.60;99.90;;;;;;12530034;28;20056;-36
2024/02/12 08:52:38;;;;;;;149.98;139.75;;;7.50;99.90;;;;;;12522391;28;20080;-35
2024/02/12 08:58:42;;;;;;;156.85;146.40;;;7.20;99.90;;;;;;12542208;28;20056;-36
2024/02/12 09:04:44;;;;;;;169.87;158.97;;;7.10;99.90;;;;;;12529361;28;20520;-36
2024/02/12 09:10:46;;;;;;;168.23;156.95;;;7.20;99.90;;;;;;12523728;28;20049;-36
2024/02/12 09:16:49;;;;;;;202.15;188.55;;;7.20;99.90;;;;;;12535715;28;20187;-35
2024/02/12 09:22:53;;;;;;;214.70;200.13;;;7.30;99.90;;;;;;12520453;28;20072;-36
2024/02/12 09:43:47;;;;;;;200.13;186.60;;;7.80;99.90;;;;;;12508899;28;20443;-36
2024/02/12 09:49:53;;;;;;;220.35;205.88;;;7.90;99.90;;;;;;12518342;28;20497;-36
2024/02/12 09:55:56;;;;;;;185.48;172.73;;;8.00;99.90;;;;;;12522757;28;20056;-36
2024/02/12 10:01:58;;;;;;;187.23;174.23;;;8.00;99.90;;;;;;12522984;28;20057;-36
2024/02/12 10:08:01;;;;;;;174.10;161.82;;;8.00;99.90;;;;;;12508107;28;20053;-36
2024/02/12 10:14:05;;;;;;;184.73;171.83;;;8.10;99.90;;;;;;12531110;28;20147;-36
2024/02/12 10:20:09;;;;;;;210.27;195.87;;;8.30;99.90;;;;;;12508406;28;20087;-37
2024/02/12 10:26:12;;;;;;;223.85;208.50;;;8.60;99.90;;;;;;12523558;28;20102;-36
2024/02/12 10:32:14;;;;;;;174.13;161.55;;;8.80;99.90;;;;;;12518754;28;20057;-36
2024/02/12 10:38:16;;;;;;;146.07;135.32;;;8.90;99.90;;;;;;12528220;28;20049;-36
2024/02/12 10:44:19;;;;;;;122.45;113.70;;;8.80;99.90;;;;;;12519153;28;20420;-36
2024/02/12 10:50:22;;;;;;;132.93;123.38;;;8.80;99.90;;;;;;12516896;28;20147;-36
2024/02/12 10:56:24;;;;;;;146.60;136.10;;;9.00;99.90;;;;;;12529584;28;21148;-36
2024/02/12 11:02:27;;;;;;;139.63;129.88;;;9.20;99.90;;;;;;12535599;28;20063;-35
2024/02/12 11:08:34;;;;;;;139.35;129.50;;;9.20;99.90;;;;;;12526668;28;20052;-37
2024/02/12 11:14:39;;;;;;;126.40;117.47;;;9.00;99.90;;;;;;12510571;28;20053;-36
2024/02/12 11:20:54;;;;;;;107.88;100.38;;;8.70;99.90;;;;;;12533302;28;20049;-36
2024/02/12 11:26:59;;;;;;;121.10;112.70;;;8.70;99.90;;;;;;12516811;28;20136;-36
2024/02/12 11:33:02;;;;;;;111.95;104.30;;;8.90;99.90;;;;;;12525799;28;20098;-36
2024/02/12 11:39:09;;;;;;;122.60;113.55;;;9.30;99.90;;;;;;12530384;28;20059;-36
2024/02/12 11:51:49;;;;;;;111.60;102.80;;;9.00;99.90;;;;;;5032298;22;20072;-35
2024/02/12 11:57:51;;;;;;;110.47;102.15;;;8.80;99.90;;;;;;12500175;28;20049;-35
2024/02/12 12:03:54;;;;;;;104.63;96.82;;;8.70;99.90;;;;;;12519787;28;20057;-36
2024/02/12 12:10:05;;;;;;;103.95;96.20;;;8.60;99.90;;;;;;12518675;28;20076;-36
2024/02/12 12:16:07;;;;;;;102.95;94.68;;;8.70;99.90;;;;;;12504974;28;20059;-36
2024/02/12 12:22:17;;;;;;;113.72;104.55;;;8.50;99.90;;;;;;12530581;28;20428;-36
2024/02/12 12:28:19;;;;;;;111.50;102.32;;;8.40;99.90;;;;;;12515663;28;20056;-35
2024/02/12 12:34:21;;;;;;;114.53;105.50;;;8.10;99.90;;;;;;12521865;28;20067;-37
2024/02/12 12:40:25;;;;;;;95.22;88.45;;;7.90;99.90;;;;;;12498759;28;20098;-36
2024/02/12 12:46:27;;;;;;;96.37;89.87;;;7.40;99.90;;;;;;12493576;28;20056;-35
2024/02/12 12:52:30;;;;;;;94.05;88.05;;;6.90;99.90;;;;;;12516432;28;20088;-36
2024/02/12 12:58:33;;;;;;;89.25;83.57;;;6.80;99.90;;;;;;12461332;28;20456;-36
2024/02/12 13:04:35;;;;;;;90.85;85.15;;;6.90;99.90;;;;;;12469608;28;20057;-35
2024/02/12 13:10:41;;;;;;;112.72;105.90;;;7.10;99.90;;;;;;12466313;28;20064;-36
2024/02/12 13:16:45;;;;;;;120.63;113.05;;;7.30;99.90;;;;;;12444758;28;20528;-36
2024/02/12 13:22:53;;;;;;;116.73;109.13;;;7.30;99.90;;;;;;12469618;28;20076;-36
2024/02/12 13:28:55;;;;;;;112.15;105.07;;;7.30;99.90;;;;;;12457232;28;20058;-36
2024/02/12 13:34:57;;;;;;;103.88;97.55;;;7.40;99.90;;;;;;12449491;28;20313;-36
2024/02/12 13:41:04;;;;;;;112.93;106.03;;;7.40;99.90;;;;;;12439106;28;20053;-36
2024/02/12 13:47:07;;;;;;;115.20;108.18;;;7.40;99.90;;;;;;12461924;28;20416;-36
2024/02/12 13:53:09;;;;;;;129.27;121.22;;;7.50;99.90;;;;;;12462514;28;20545;-35
2024/02/12 13:59:16;;;;;;;137.45;128.98;;;7.50;99.90;;;;;;12462802;28;20523;-36
2024/02/12 14:05:20;;;;;;;148.18;138.73;;;7.50;99.90;;;;;;12465132;28;20045;-36
2024/02/12 14:11:24;;;;;;;142.52;133.38;;;7.60;99.90;;;;;;12431902;28;20068;-36
2024/02/12 14:17:25;;;;;;;140.20;131.23;;;7.70;99.90;;;;;;12463654;28;20077;-34
2024/02/12 14:23:27;;;;;;;144.52;135.02;;;7.80;99.90;;;;;;12450630;28;20410;-36
2024/02/12 14:29:30;;;;;;;150.02;140.07;;;7.70;99.90;;;;;;12486475;28;20060;-36
2024/02/12 14:35:38;;;;;;;197.20;184.60;;;7.90;99.90;;;;;;12510880;28;20619;-36
2024/02/12 14:41:43;;;;;;;202.85;190.05;;;7.90;99.90;;;;;;12482057;28;20063;-35
2024/02/12 14:47:45;;;;;;;191.20;178.80;;;7.80;99.90;;;;;;12482049;28;20421;-36
2024/02/12 14:53:47;;;;;;;207.73;194.55;;;7.90;99.90;;;;;;12452093;28;20145;-36
2024/02/12 14:59:49;;;;;;;210.65;197.02;;;8.00;99.90;;;;;;12423655;28;20042;-35
2024/02/12 15:05:51;;;;;;;132.15;123.15;;;7.90;99.90;;;;;;12437186;28;20056;-35
2024/02/12 15:11:53;;;;;;;121.65;113.25;;;7.80;99.90;;;;;;12421879;28;20056;-36
2024/02/12 15:17:56;;;;;;;131.13;121.68;;;7.80;99.90;;;;;;12419258;28;20137;-36
2024/02/12 15:23:59;;;;;;;126.00;117.20;;;7.60;99.90;;;;;;12424619;28;20059;-36
2024/02/12 15:30:01;;;;;;;127.55;118.90;;;7.50;99.90;;;;;;12433575;28;20100;-36
2024/02/12 15:36:04;;;;;;;124.75;115.97;;;7.50;99.90;;;;;;12408439;28;20085;-35
2024/02/12 15:42:06;;;;;;;134.10;124.97;;;7.50;99.90;;;;;;12430930;28;20088;-36
2024/02/12 15:48:13;;;;;;;134.38;125.05;;;7.40;99.90;;;;;;12429032;28;20041;-36
2024/02/12 15:54:18;;;;;;;149.32;139.10;;;7.30;99.90;;;;;;12449968;28;20068;-36
2024/02/12 16:00:29;;;;;;;150.95;140.73;;;7.20;99.90;;;;;;12487183;28;20195;-36
2024/02/12 16:06:32;;;;;;;156.98;146.07;;;7.20;99.90;;;;;;12471094;28;20077;-36
2024/02/12 16:12:34;;;;;;;156.40;145.40;;;7.10;99.90;;;;;;12468736;28;20053;-34
2024/02/12 16:18:38;;;;;;;160.70;149.40;;;7.10;99.90;;;;;;12470083;28;20146;-36
2024/02/12 16:24:41;;;;;;;164.85;153.23;;;7.00;99.90;;;;;;12481486;28;20144;-35
2024/02/12 16:30:43;;;;;;;148.68;138.02;;;6.80;99.90;;;;;;12463189;28;20054;-35
2024/02/12 16:36:45;;;;;;;142.82;132.63;;;6.70;99.90;;;;;;12456807;28;20512;-36
2024/02/12 16:42:47;;;;;;;143.43;133.13;;;6.70;99.90;;;;;;12443145;28;20137;-36
2024/02/12 16:48:49;;;;;;;140.85;130.55;;;6.60;99.90;;;;;;12466152;28;20426;-35
2024/02/12 16:54:51;;;;;;;140.20;129.80;;;6.50;99.90;;;;;;12460026;28;20061;-35
2024/02/12 17:00:55;;;;;;;127.78;118.22;;;6.50;99.90;;;;;;12460972;28;20054;-36
2024/02/12 17:06:59;;;;;;;127.72;118.00;;;6.40;99.90;;;;;;12491874;28;20073;-35
2024/02/12 17:13:01;;;;;;;129.00;119.17;;;6.50;99.90;;;;;;12490036;28;20046;-36
2024/02/12 17:19:04;;;;;;;128.88;119.07;;;6.50;99.90;;;;;;12482863;28;20405;-35
2024/02/12 17:25:07;;;;;;;136.73;126.37;;;6.50;99.90;;;;;;12467430;28;20053;-36
2024/02/12 17:31:10;;;;;;;144.20;133.55;;;6.60;99.90;;;;;;12454034;28;20383;-35
2024/02/12 17:37:12;;;;;;;149.27;137.80;;;6.60;99.90;;;;;;12472575;28;20049;-35
2024/02/12 17:43:14;;;;;;;148.73;137.80;;;6.60;99.90;;;;;;12458999;28;20084;-36
2024/02/12 17:49:16;;;;;;;148.40;137.52;;;6.70;99.90;;;;;;12456541;28;20061;-35
2024/02/12 17:55:18;;;;;;;163.15;151.23;;;6.70;99.90;;;;;;12463108;28;20049;-36
2024/02/12 18:01:21;;;;;;;144.65;134.45;;;6.80;99.90;;;;;;12439372;28;20724;-36
2024/02/12 18:07:23;;;;;;;127.13;118.90;;;6.70;99.90;;;;;;12453920;28;20053;-36
2024/02/12 18:13:25;;;;;;;124.47;116.72;;;6.60;99.90;;;;;;12465901;28;20180;-36
2024/02/12 18:19:28;;;;;;;133.80;125.47;;;6.50;99.90;;;;;;12481709;28;20516;-35
2024/02/12 18:25:30;;;;;;;118.70;111.53;;;6.10;99.90;;;;;;12476827;28;20045;-36
2024/02/12 18:31:32;;;;;;;121.03;113.82;;;5.90;99.90;;;;;;12466411;28;20188;-36
2024/02/12 18:37:37;;;;;;;119.47;112.28;;;5.80;99.90;;;;;;12446790;28;20069;-35
2024/02/12 18:43:39;;;;;;;129.68;122.07;;;5.80;99.90;;;;;;12485440;28;20057;-35
2024/02/12 18:49:41;;;;;;;127.13;119.53;;;5.60;99.90;;;;;;12465281;28;20060;-36
2024/02/12 18:55:43;;;;;;;126.78;119.07;;;5.60;99.90;;;;;;12476803;28;20049;-36
2024/02/12 19:01:46;;;;;;;128.70;120.78;;;5.50;99.90;;;;;;12451770;28;20046;-36
2024/02/12 19:07:48;;;;;;;131.65;123.75;;;5.50;99.90;;;;;;12489601;28;20088;-36
2024/02/12 19:13:52;;;;;;;132.90;124.90;;;5.40;99.90;;;;;;12475209;28;20054;-36
2024/02/12 19:19:54;;;;;;;129.13;121.32;;;5.40;99.90;;;;;;12482043;28;20084;-36
2024/02/12 19:25:59;;;;;;;129.20;121.20;;;5.40;99.90;;;;;;12450475;28;20050;-36
2024/02/12 19:32:02;;;;;;;127.93;119.97;;;5.30;99.90;;;;;;12474070;28;20057;-36
2024/02/12 19:38:04;;;;;;;133.57;125.07;;;5.30;99.90;;;;;;12482652;28;20140;-36
2024/02/12 19:44:06;;;;;;;139.73;130.70;;;5.30;99.90;;;;;;12470254;28;20426;-36
2024/02/12 19:50:11;;;;;;;141.05;132.10;;;5.30;99.90;;;;;;12452549;28;20057;-36
2024/02/12 19:56:13;;;;;;;136.15;127.55;;;5.30;99.90;;;;;;12462594;28;20054;-36
2024/02/12 20:02:16;;;;;;;135.18;126.63;;;5.40;99.90;;;;;;12467274;28;20140;-36
2024/02/12 20:08:17;;;;;;;141.27;132.52;;;5.30;99.90;;;;;;12457746;28;20067;-36
2024/02/12 20:14:20;;;;;;;137.20;128.40;;;5.40;99.90;;;;;;12474223;28;20049;-35
2024/02/12 20:20:22;;;;;;;131.48;123.38;;;5.40;99.90;;;;;;12472390;28;20081;-35
2024/02/12 20:26:24;;;;;;;134.68;126.18;;;5.40;99.90;;;;;;12511725;28;20049;-36
2024/02/12 20:32:29;;;;;;;137.95;129.25;;;5.40;99.90;;;;;;12523630;28;20049;-36
2024/02/12 20:38:30;;;;;;;148.25;138.95;;;5.40;99.90;;;;;;12424949;28;20065;-35
2024/02/12 20:44:33;;;;;;;150.43;140.85;;;5.30;99.90;;;;;;12454099;28;20176;-36
2024/02/12 20:50:35;;;;;;;154.80;144.80;;;5.10;99.90;;;;;;12499897;28;20467;-35
2024/02/12 20:56:37;;;;;;;152.88;142.82;;;5.10;99.90;;;;;;12493413;28;20563;-35
2024/02/12 21:02:39;;;;;;;155.60;145.45;;;5.00;99.90;;;;;;12469342;28;20394;-35
2024/02/12 21:08:42;;;;;;;156.00;145.93;;;4.90;99.90;;;;;;12467503;28;20049;-36
2024/02/12 21:14:44;;;;;;;160.50;149.57;;;4.90;99.90;;;;;;12453210;28;20152;-36
2024/02/12 21:20:46;;;;;;;162.30;151.57;;;5.00;99.90;;;;;;12457979;28;21054;-36
2024/02/12 21:26:49;;;;;;;170.52;159.02;;;4.90;99.90;;;;;;12463518;28;20053;-36
2024/02/12 21:32:51;;;;;;;168.93;157.65;;;4.90;99.90;;;;;;12503460;28;20114;-36
2024/02/12 21:38:53;;;;;;;165.15;154.05;;;5.00;99.90;;;;;;12442745;28;20144;-35
2024/02/12 21:44:56;;;;;;;164.88;153.63;;;4.90;99.90;;;;;;12453317;28;20054;-36
2024/02/12 21:50:59;;;;;;;168.03;156.57;;;4.90;99.90;;;;;;12465637;28;20213;-36
2024/02/12 21:57:01;;;;;;;159.02;148.63;;;5.00;99.90;;;;;;12474847;28;20117;-37
2024/02/12 22:03:04;;;;;;;163.75;152.73;;;5.10;99.90;;;;;;12461257;28;20180;-36
2024/02/12 22:09:06;;;;;;;168.85;157.55;;;5.00;99.90;;;;;;12454951;28;20057;-36
2024/02/12 22:15:09;;;;;;;165.65;154.70;;;4.90;99.90;;;;;;12465784;28;20065;-36
2024/02/12 22:21:11;;;;;;;162.15;151.35;;;4.80;99.90;;;;;;12459186;28;20064;-36
2024/02/12 22:27:15;;;;;;;158.68;148.32;;;4.80;99.90;;;;;;12472819;28;20041;-36
2024/02/12 22:33:17;;;;;;;165.13;153.85;;;4.90;99.90;;;;;;12463968;28;20172;-35
2024/02/12 22:39:20;;;;;;;163.38;152.57;;;4.90;99.90;;;;;;12470946;28;20065;-35
2024/02/12 22:45:25;;;;;;;161.05;150.48;;;4.90;99.90;;;;;;12454256;28;20085;-36
2024/02/12 22:51:28;;;;;;;153.85;143.65;;;4.90;99.90;;;;;;12443390;28;20718;-36
2024/02/12 22:57:30;;;;;;;154.50;144.18;;;5.00;99.90;;;;;;12500444;28;20061;-35
2024/02/12 23:03:31;;;;;;;161.60;150.85;;;5.00;99.90;;;;;;12485191;28;20056;-36
2024/02/12 23:09:33;;;;;;;157.50;147.25;;;5.00;99.90;;;;;;12484594;28;20049;-36
2024/02/12 23:15:37;;;;;;;165.27;154.52;;;4.90;99.90;;;;;;12490122;28;20096;-36
2024/02/12 23:21:39;;;;;;;167.70;156.30;;;4.90;99.90;;;;;;12450643;28;20057;-36
2024/02/12 23:27:41;;;;;;;171.10;159.80;;;5.00;99.90;;;;;;12487070;28;20045;-36
2024/02/12 23:33:45;;;;;;;161.25;150.25;;;5.10;99.90;;;;;;12481682;28;20057;-36
2024/02/12 23:39:47;;;;;;;156.18;145.93;;;5.10;99.90;;;;;;12456860;28;20083;-35
2024/02/12 23:45:49;;;;;;;149.00;139.10;;;5.20;99.90;;;;;;12488686;28;20129;-36
2024/02/12 23:51:51;;;;;;;148.68;138.93;;;5.30;99.90;;;;;;12487589;28;20084;-36
2024/02/12 23:57:52;;;;;;;152.82;142.55;;;5.50;99.90;;;;;;12491610;28;20172;-36
